createdAt,value
2023-01-30T00:00:21.681Z,-3.16
2023-01-30T00:01:28.257Z,-2.95
2023-01-30T00:02:30.856Z,-3.92
2023-01-30T00:03:32.568Z,-3.24
2023-01-30T00:04:34.471Z,-4.10
2023-01-30T00:05:36.173Z,-4.04
2023-01-30T00:06:38.630Z,-3.82
2023-01-30T00:07:40.146Z,-3.49
2023-01-30T00:08:42.024Z,-4.04
2023-01-30T00:09:43.694Z,-3.72
2023-01-30T00:10:46.253Z,-3.15
2023-01-30T00:11:47.861Z,-3.46
2023-01-30T00:12:49.470Z,-3.40
2023-01-30T00:13:51.657Z,-4.13
2023-01-30T00:14:53.349Z,-3.41
2023-01-30T00:15:54.928Z,-3.59
2023-01-30T00:16:56.546Z,-3.42
2023-01-30T00:17:58.294Z,-4.48
2023-01-30T00:18:59.972Z,-4.25
2023-01-30T00:20:01.801Z,-3.54
2023-01-30T00:21:06.274Z,-3.33
2023-01-30T00:22:10.491Z,-3.71
2023-01-30T00:23:12.134Z,-3.27
2023-01-30T00:24:13.834Z,-3.42
2023-01-30T00:25:15.809Z,-3.81
2023-01-30T00:26:17.716Z,-4.35
2023-01-30T00:27:19.504Z,-4.37
2023-01-30T00:28:24.652Z,-3.61
2023-01-30T00:29:26.542Z,-3.44
2023-01-30T00:30:28.544Z,-3.35
2023-01-30T00:31:33.060Z,-3.90
2023-01-30T00:32:34.853Z,-3.65
2023-01-30T00:33:38.617Z,-3.45
2023-01-30T00:34:40.205Z,-3.71
2023-01-30T00:35:49.327Z,-3.58
2023-01-30T00:36:58.916Z,-3.61
2023-01-30T00:38:04.209Z,-3.56
2023-01-30T00:39:05.838Z,-3.69
2023-01-30T00:40:08.005Z,-4.53
2023-01-30T00:41:10.755Z,-3.54
2023-01-30T00:42:31.331Z,-3.31
2023-01-30T00:43:51.818Z,-3.50
2023-01-30T00:45:11.981Z,-3.77
2023-01-30T00:47:06.299Z,-3.62
2023-01-30T00:48:08.051Z,-3.65
2023-01-30T00:49:12.691Z,-3.61
2023-01-30T00:50:14.357Z,-3.39
2023-01-30T00:51:19.199Z,-4.10
2023-01-30T00:52:20.986Z,-4.01
2023-01-30T00:53:25.469Z,-3.84
2023-01-30T00:54:27.193Z,-3.95
2023-01-30T00:55:28.898Z,-3.88
2023-01-30T00:56:30.446Z,-3.27
2023-01-30T00:57:31.969Z,-3.39
2023-01-30T00:58:33.897Z,-3.95
2023-01-30T00:59:35.489Z,-3.38
2023-01-30T01:00:37.207Z,-3.96
2023-01-30T01:01:39.214Z,-3.09
2023-01-30T01:02:40.842Z,-3.07
2023-01-30T01:03:42.608Z,-3.41
2023-01-30T01:04:44.421Z,-2.69
2023-01-30T01:05:46.208Z,-2.55
2023-01-30T01:06:47.925Z,-2.78
2023-01-30T01:07:49.718Z,-2.66
2023-01-30T01:08:51.413Z,-3.51
2023-01-30T01:09:53.195Z,-2.57
2023-01-30T01:10:54.985Z,-2.42
2023-01-30T01:11:56.619Z,-2.50
2023-01-30T01:12:58.459Z,-2.83
2023-01-30T01:14:02.616Z,-1.81
2023-01-30T01:15:04.552Z,-2.02
2023-01-30T01:16:06.375Z,-1.77
2023-01-30T01:17:08.043Z,-1.79
2023-01-30T01:18:09.748Z,-2.53
2023-01-30T01:19:11.322Z,-2.40
2023-01-30T01:20:13.723Z,-1.89
2023-01-30T01:21:20.195Z,-2.41
2023-01-30T01:22:22.120Z,-2.16
2023-01-30T01:23:23.818Z,-1.90
2023-01-30T01:24:25.359Z,-1.96
2023-01-30T01:25:26.995Z,-2.01
2023-01-30T01:26:28.940Z,-2.67
2023-01-30T01:27:30.573Z,-1.83
2023-01-30T01:28:32.422Z,-1.93
2023-01-30T01:29:34.067Z,-1.68
2023-01-30T01:30:39.897Z,-1.80
2023-01-30T01:31:42.885Z,-1.95
2023-01-30T01:32:44.880Z,-1.76
2023-01-30T01:33:46.604Z,-2.62
2023-01-30T01:34:48.480Z,-1.82
2023-01-30T01:35:49.997Z,-1.83
2023-01-30T01:36:53.952Z,-1.55
2023-01-30T01:37:56.189Z,-1.51
2023-01-30T01:38:57.785Z,-1.55
2023-01-30T01:40:20.027Z,-1.71
2023-01-30T01:41:21.720Z,-1.51
2023-01-30T01:42:26.518Z,-1.62
2023-01-30T01:43:31.193Z,-1.54
2023-01-30T01:45:05.943Z,-1.70
2023-01-30T01:46:20.579Z,-1.14
2023-01-30T01:47:22.290Z,-1.17
2023-01-30T01:48:38.510Z,-1.19
2023-01-30T01:49:40.376Z,-1.75
2023-01-30T01:50:59.444Z,-0.98
2023-01-30T01:52:07.932Z,-0.94
2023-01-30T01:53:14.417Z,-1.04
2023-01-30T01:54:21.431Z,-1.73
2023-01-30T01:55:25.232Z,-1.47
2023-01-30T01:56:27.510Z,-0.89
2023-01-30T01:57:48.572Z,-0.84
2023-01-30T01:58:57.353Z,-1.13
2023-01-30T02:00:11.518Z,-0.76
2023-01-30T02:01:13.462Z,-1.15
2023-01-30T02:02:15.390Z,-1.86
2023-01-30T02:03:21.601Z,-1.41
2023-01-30T02:04:43.344Z,-0.96
2023-01-30T02:05:49.878Z,-0.59
2023-01-30T02:06:51.672Z,-0.82
2023-01-30T02:08:14.358Z,-0.66
2023-01-30T02:09:15.913Z,-0.62
2023-01-30T02:10:23.712Z,-1.01
2023-01-30T02:11:49.872Z,-0.71
2023-01-30T02:12:53.003Z,-0.68
2023-01-30T02:13:55.380Z,-0.68
2023-01-30T02:14:58.936Z,-0.68
2023-01-30T02:16:02.929Z,-0.95
2023-01-30T02:17:04.799Z,-0.78
2023-01-30T02:18:06.725Z,-0.53
2023-01-30T02:19:25.891Z,-0.93
2023-01-30T02:20:40.307Z,-0.87
2023-01-30T02:22:17.743Z,-0.69
2023-01-30T02:23:44.409Z,-0.96
2023-01-30T02:25:04.469Z,-0.88
2023-01-30T02:26:43.798Z,-1.04
2023-01-30T02:28:00.491Z,-1.18
2023-01-30T02:29:32.923Z,-1.15
2023-01-30T02:31:18.436Z,-0.98
2023-01-30T02:32:46.172Z,-0.95
2023-01-30T02:34:08.922Z,-0.57
2023-01-30T02:35:46.152Z,-0.44
2023-01-30T02:36:56.499Z,-0.36
2023-01-30T02:38:29.948Z,-0.45
2023-01-30T02:40:09.330Z,-0.50
2023-01-30T02:41:36.000Z,-0.52
2023-01-30T02:43:08.960Z,-0.54
2023-01-30T02:44:15.505Z,-1.04
2023-01-30T02:45:26.658Z,-0.78
2023-01-30T02:46:40.814Z,-0.58
2023-01-30T02:47:49.694Z,-0.67
2023-01-30T02:49:00.808Z,-0.75
2023-01-30T02:50:10.822Z,-0.71
2023-01-30T02:51:29.168Z,-0.65
2023-01-30T02:52:31.535Z,-0.89
2023-01-30T02:53:34.650Z,-0.54
2023-01-30T02:54:36.277Z,-1.27
2023-01-30T02:55:40.790Z,-0.80
2023-01-30T02:56:54.375Z,-1.10
2023-01-30T02:57:56.576Z,-1.11
2023-01-30T02:59:08.703Z,-0.84
2023-01-30T03:00:11.096Z,-0.64
2023-01-30T03:01:37.281Z,-0.32
2023-01-30T03:03:11.325Z,-0.53
2023-01-30T03:04:30.145Z,-0.24
2023-01-30T03:06:02.712Z,-0.17
2023-01-30T03:07:28.088Z,-0.07
2023-01-30T03:08:43.174Z,-0.06
2023-01-30T03:10:02.699Z,-0.32
2023-01-30T03:11:07.478Z,0.02
2023-01-30T03:12:14.811Z,0.13
2023-01-30T03:13:19.386Z,0.28
2023-01-30T03:14:27.407Z,0.11
2023-01-30T03:15:34.211Z,0.40
2023-01-30T03:16:38.973Z,-0.41
2023-01-30T03:17:44.493Z,0.37
2023-01-30T03:18:46.430Z,0.11
2023-01-30T03:19:48.535Z,0.24
2023-01-30T03:20:51.507Z,0.28
2023-01-30T03:21:53.080Z,0.54
2023-01-30T03:22:55.421Z,0.63
2023-01-30T03:23:57.335Z,0.42
2023-01-30T03:24:58.996Z,0.07
2023-01-30T03:26:05.010Z,0.64
2023-01-30T03:27:10.733Z,0.70
2023-01-30T03:28:14.111Z,-0.15
2023-01-30T03:29:16.456Z,0.57
2023-01-30T03:30:18.424Z,0.42
2023-01-30T03:31:20.154Z,-0.57
2023-01-30T03:32:21.819Z,0.33
2023-01-30T03:33:23.424Z,0.41
2023-01-30T03:34:25.120Z,0.40
2023-01-30T03:35:26.899Z,-0.14
2023-01-30T03:36:28.568Z,0.60
2023-01-30T03:37:30.585Z,0.24
2023-01-30T03:38:32.213Z,0.03
2023-01-30T03:39:34.295Z,0.59
2023-01-30T03:40:38.848Z,0.59
2023-01-30T03:41:40.663Z,0.66
2023-01-30T03:42:42.585Z,0.61
2023-01-30T03:43:44.249Z,0.45
2023-01-30T03:44:46.105Z,-0.30
2023-01-30T03:45:47.879Z,0.48
2023-01-30T03:46:51.759Z,0.28
2023-01-30T03:47:53.449Z,0.62
2023-01-30T03:48:55.140Z,0.71
2023-01-30T03:49:56.751Z,-0.14
2023-01-30T03:50:58.478Z,0.18
2023-01-30T03:52:00.059Z,0.39
2023-01-30T03:53:01.675Z,0.37
2023-01-30T03:54:03.439Z,-0.09
2023-01-30T03:55:05.419Z,0.42
2023-01-30T03:56:07.084Z,0.29
2023-01-30T03:57:08.745Z,0.26
2023-01-30T03:58:10.399Z,0.47
2023-01-30T03:59:12.168Z,0.39
2023-01-30T04:00:14.391Z,0.63
2023-01-30T04:01:16.138Z,0.61
2023-01-30T04:02:22.469Z,0.26
2023-01-30T04:03:24.724Z,0.86
2023-01-30T04:04:26.434Z,0.30
2023-01-30T04:05:28.010Z,0.47
2023-01-30T04:06:29.655Z,0.68
2023-01-30T04:07:31.467Z,0.47
2023-01-30T04:08:33.128Z,0.61
2023-01-30T04:09:34.679Z,0.95
2023-01-30T04:10:36.301Z,0.90
2023-01-30T04:11:38.679Z,0.78
2023-01-30T04:12:40.304Z,1.38
2023-01-30T04:13:41.929Z,1.18
2023-01-30T04:14:43.512Z,0.49
2023-01-30T04:15:45.173Z,0.37
2023-01-30T04:16:46.963Z,0.23
2023-01-30T04:17:48.735Z,0.17
2023-01-30T04:18:51.039Z,1.02
2023-01-30T04:19:52.601Z,0.26
2023-01-30T04:20:54.269Z,0.27
2023-01-30T04:21:55.879Z,0.89
2023-01-30T04:22:57.604Z,0.26
2023-01-30T04:23:59.296Z,0.23
2023-01-30T04:25:00.987Z,0.71
2023-01-30T04:26:02.616Z,0.91
2023-01-30T04:27:04.200Z,0.94
2023-01-30T04:28:05.862Z,0.17
2023-01-30T04:29:07.636Z,0.15
2023-01-30T04:30:10.048Z,0.31
2023-01-30T04:31:11.937Z,0.81
2023-01-30T04:32:13.759Z,0.37
2023-01-30T04:33:15.355Z,0.35
2023-01-30T04:34:19.623Z,1.04
2023-01-30T04:35:21.567Z,0.45
2023-01-30T04:36:23.214Z,0.17
2023-01-30T04:37:24.971Z,0.05
2023-01-30T04:38:27.844Z,0.98
2023-01-30T04:39:29.612Z,0.22
2023-01-30T04:40:31.221Z,0.15
2023-01-30T04:41:33.100Z,1.05
2023-01-30T04:42:34.680Z,0.36
2023-01-30T04:43:36.386Z,0.90
2023-01-30T04:44:37.959Z,1.03
2023-01-30T04:45:43.696Z,1.13
2023-01-30T04:46:45.427Z,0.33
2023-01-30T04:47:47.006Z,0.87
2023-01-30T04:48:48.614Z,0.11
2023-01-30T04:49:50.229Z,1.00
2023-01-30T04:50:54.278Z,1.02
2023-01-30T04:51:55.841Z,0.70
2023-01-30T04:52:57.512Z,1.06
2023-01-30T04:53:59.196Z,0.08
2023-01-30T04:55:00.901Z,0.33
2023-01-30T04:56:02.690Z,0.39
2023-01-30T04:57:04.436Z,0.82
2023-01-30T04:58:06.095Z,1.03
2023-01-30T04:59:07.811Z,0.81
2023-01-30T05:00:10.063Z,0.23
2023-01-30T05:01:24.973Z,1.18
2023-01-30T05:02:26.598Z,0.96
2023-01-30T05:03:28.273Z,1.11
2023-01-30T05:04:29.823Z,1.33
2023-01-30T05:05:31.432Z,0.83
2023-01-30T05:06:34.275Z,1.43
2023-01-30T05:07:36.194Z,1.35
2023-01-30T05:08:37.853Z,0.92
2023-01-30T05:09:39.518Z,1.03
2023-01-30T05:10:41.387Z,1.72
2023-01-30T05:11:44.013Z,1.30
2023-01-30T05:12:46.192Z,1.21
2023-01-30T05:13:48.268Z,0.99
2023-01-30T05:14:49.852Z,0.92
2023-01-30T05:15:51.561Z,1.23
2023-01-30T05:16:53.215Z,1.81
2023-01-30T05:17:54.892Z,1.64
2023-01-30T05:18:56.505Z,1.78
2023-01-30T05:19:58.255Z,1.42
2023-01-30T05:21:04.713Z,1.77
2023-01-30T05:22:06.330Z,1.75
2023-01-30T05:23:07.849Z,1.03
2023-01-30T05:24:09.560Z,0.87
2023-01-30T05:25:11.319Z,1.90
2023-01-30T05:26:13.751Z,1.65
2023-01-30T05:27:15.595Z,1.82
2023-01-30T05:28:17.145Z,1.43
2023-01-30T05:29:18.850Z,1.98
2023-01-30T05:30:20.608Z,1.65
2023-01-30T05:31:22.990Z,2.08
2023-01-30T05:32:25.692Z,1.75
2023-01-30T05:33:27.446Z,1.16
2023-01-30T05:34:28.937Z,1.82
2023-01-30T05:35:30.533Z,1.73
2023-01-30T05:36:32.099Z,1.90
2023-01-30T05:37:33.680Z,1.28
2023-01-30T05:38:35.220Z,1.98
2023-01-30T05:39:37.091Z,1.41
2023-01-30T05:40:38.719Z,1.81
2023-01-30T05:41:40.387Z,1.48
2023-01-30T05:42:42.010Z,1.82
2023-01-30T05:43:44.207Z,1.69
2023-01-30T05:44:46.170Z,1.97
2023-01-30T05:45:53.591Z,1.69
2023-01-30T05:46:55.296Z,2.01
2023-01-30T05:48:01.290Z,1.67
2023-01-30T05:49:04.317Z,1.23
2023-01-30T05:50:06.219Z,1.71
2023-01-30T05:51:19.327Z,1.62
2023-01-30T05:52:21.787Z,1.03
2023-01-30T05:53:26.535Z,1.85
2023-01-30T05:54:28.218Z,1.72
2023-01-30T05:55:29.951Z,1.58
2023-01-30T05:56:33.365Z,1.62
2023-01-30T05:57:34.995Z,1.68
2023-01-30T05:58:36.749Z,0.74
2023-01-30T05:59:38.324Z,1.70
2023-01-30T06:00:40.068Z,1.09
2023-01-30T06:01:41.750Z,1.12
2023-01-30T06:02:43.385Z,1.58
2023-01-30T06:03:45.536Z,1.65
2023-01-30T06:04:47.212Z,1.76
2023-01-30T06:05:48.864Z,1.53
2023-01-30T06:06:51.796Z,0.89
2023-01-30T06:07:53.567Z,1.91
2023-01-30T06:08:56.380Z,1.69
2023-01-30T06:09:58.024Z,2.04
2023-01-30T06:11:01.527Z,1.98
2023-01-30T06:12:03.360Z,2.11
2023-01-30T06:13:05.082Z,1.90
2023-01-30T06:14:06.750Z,2.06
2023-01-30T06:15:09.300Z,1.55
2023-01-30T06:16:13.060Z,2.21
2023-01-30T06:17:15.011Z,2.20
2023-01-30T06:18:16.868Z,1.77
2023-01-30T06:19:18.525Z,2.30
2023-01-30T06:20:20.620Z,1.73
2023-01-30T06:21:22.243Z,1.78
2023-01-30T06:22:24.009Z,1.76
2023-01-30T06:23:28.848Z,2.12
2023-01-30T06:24:31.629Z,2.48
2023-01-30T06:25:33.242Z,1.78
2023-01-30T06:26:35.587Z,2.33
2023-01-30T06:27:38.218Z,2.30
2023-01-30T06:28:39.913Z,2.42
2023-01-30T06:29:41.629Z,2.24
2023-01-30T06:30:46.663Z,2.52
2023-01-30T06:31:48.310Z,2.15
2023-01-30T06:32:51.983Z,2.18
2023-01-30T06:33:54.225Z,2.26
2023-01-30T06:34:55.879Z,2.27
2023-01-30T06:35:57.498Z,2.19
2023-01-30T06:36:59.172Z,1.78
2023-01-30T06:38:00.801Z,2.48
2023-01-30T06:39:02.449Z,2.62
2023-01-30T06:40:05.759Z,2.22
2023-01-30T06:41:07.887Z,1.95
2023-01-30T06:42:13.256Z,1.60
2023-01-30T06:43:18.182Z,2.55
2023-01-30T06:44:24.205Z,1.27
2023-01-30T06:45:26.083Z,2.16
2023-01-30T06:46:27.868Z,2.44
2023-01-30T06:47:29.433Z,2.25
2023-01-30T06:48:31.074Z,1.52
2023-01-30T06:49:32.678Z,1.85
2023-01-30T06:50:35.272Z,2.54
2023-01-30T06:51:36.945Z,1.74
2023-01-30T06:52:44.820Z,2.56
2023-01-30T06:53:46.526Z,2.26
2023-01-30T06:54:48.140Z,2.39
2023-01-30T06:55:49.761Z,1.85
2023-01-30T06:56:51.463Z,2.50
2023-01-30T06:58:13.760Z,1.37
2023-01-30T06:59:18.042Z,2.64
2023-01-30T07:00:20.807Z,2.29
2023-01-30T07:01:22.391Z,2.36
2023-01-30T07:02:24.002Z,2.50
2023-01-30T07:03:25.580Z,2.46
2023-01-30T07:04:27.448Z,2.32
2023-01-30T07:05:29.339Z,2.41
2023-01-30T07:06:31.423Z,2.66
2023-01-30T07:07:33.994Z,2.65
2023-01-30T07:08:35.655Z,2.54
2023-01-30T07:09:37.429Z,2.02
2023-01-30T07:10:39.656Z,2.32
2023-01-30T07:11:41.361Z,1.91
2023-01-30T07:12:43.001Z,2.45
2023-01-30T07:13:44.881Z,1.97
2023-01-30T07:14:46.708Z,1.61
2023-01-30T07:15:48.650Z,2.20
2023-01-30T07:16:50.439Z,1.79
2023-01-30T07:17:52.148Z,2.46
2023-01-30T07:18:57.348Z,2.49
2023-01-30T07:19:59.386Z,2.33
2023-01-30T07:21:01.067Z,2.62
2023-01-30T07:22:03.435Z,2.40
2023-01-30T07:23:05.130Z,2.53
2023-01-30T07:24:07.449Z,2.45
2023-01-30T07:25:09.331Z,2.10
2023-01-30T07:26:11.019Z,2.30
2023-01-30T07:27:13.515Z,2.32
2023-01-30T07:28:15.147Z,2.70
2023-01-30T07:29:16.943Z,2.25
2023-01-30T07:30:19.155Z,2.14
2023-01-30T07:31:20.753Z,2.39
2023-01-30T07:32:22.792Z,1.94
2023-01-30T07:33:24.428Z,2.48
2023-01-30T07:34:26.123Z,2.44
2023-01-30T07:35:31.332Z,2.51
2023-01-30T07:36:34.734Z,1.98
2023-01-30T07:37:36.449Z,1.56
2023-01-30T07:38:38.229Z,2.00
2023-01-30T07:39:39.824Z,2.47
2023-01-30T07:40:41.498Z,2.37
2023-01-30T07:41:43.214Z,2.17
2023-01-30T07:42:45.082Z,2.43
2023-01-30T07:43:48.848Z,2.54
2023-01-30T07:44:50.611Z,2.34
2023-01-30T07:45:52.456Z,1.72
2023-01-30T07:46:54.181Z,2.60
2023-01-30T07:47:55.790Z,1.92
2023-01-30T07:48:59.603Z,2.67
2023-01-30T07:50:01.762Z,2.49
2023-01-30T07:51:03.477Z,2.60
2023-01-30T07:52:05.420Z,2.71
2023-01-30T07:53:10.267Z,1.94
2023-01-30T07:54:11.935Z,1.66
2023-01-30T07:55:13.727Z,1.72
2023-01-30T07:56:18.726Z,2.68
2023-01-30T07:57:21.436Z,2.52
2023-01-30T07:58:23.172Z,2.61
2023-01-30T07:59:24.993Z,2.49
2023-01-30T08:00:27.115Z,2.45
2023-01-30T08:01:29.192Z,2.33
2023-01-30T08:02:30.946Z,2.39
2023-01-30T08:03:32.680Z,2.08
2023-01-30T08:04:34.435Z,2.78
2023-01-30T08:05:36.089Z,2.81
2023-01-30T08:06:39.741Z,2.70
2023-01-30T08:07:41.482Z,2.62
2023-01-30T08:08:43.573Z,2.13
2023-01-30T08:09:45.493Z,1.95
2023-01-30T08:10:50.430Z,2.73
2023-01-30T08:11:52.255Z,2.33
2023-01-30T08:12:54.105Z,2.61
2023-01-30T08:13:55.929Z,2.92
2023-01-30T08:14:57.614Z,2.65
2023-01-30T08:16:00.655Z,2.77
2023-01-30T08:17:02.419Z,2.23
2023-01-30T08:18:04.028Z,2.77
2023-01-30T08:19:06.426Z,2.80
2023-01-30T08:20:08.994Z,3.01
2023-01-30T08:21:11.772Z,3.00
2023-01-30T08:22:14.476Z,2.25
2023-01-30T08:23:16.093Z,2.89
2023-01-30T08:24:17.795Z,2.64
2023-01-30T08:25:20.276Z,2.19
2023-01-30T08:26:22.346Z,2.92
2023-01-30T08:27:24.198Z,2.42
2023-01-30T08:28:26.509Z,3.10
2023-01-30T08:29:28.305Z,2.21
2023-01-30T08:30:30.976Z,2.35
2023-01-30T08:31:32.659Z,2.62
2023-01-30T08:32:34.376Z,2.82
2023-01-30T08:33:35.947Z,3.04
2023-01-30T08:34:37.638Z,3.00
2023-01-30T08:35:40.279Z,3.12
2023-01-30T08:36:41.914Z,3.12
2023-01-30T08:37:47.060Z,3.14
2023-01-30T08:38:49.047Z,2.79
2023-01-30T08:39:50.758Z,2.44
2023-01-30T08:40:53.630Z,2.58
2023-01-30T08:41:55.340Z,3.13
2023-01-30T08:42:56.965Z,3.21
2023-01-30T08:43:58.668Z,2.69
2023-01-30T08:45:00.384Z,2.94
2023-01-30T08:46:02.561Z,2.70
2023-01-30T08:47:04.259Z,3.19
2023-01-30T08:48:07.103Z,2.21
2023-01-30T08:49:08.801Z,3.18
2023-01-30T08:50:11.285Z,2.95
2023-01-30T08:51:12.935Z,3.05
2023-01-30T08:52:14.805Z,2.97
2023-01-30T08:53:16.622Z,2.73
2023-01-30T08:54:18.436Z,3.23
2023-01-30T08:55:21.252Z,2.95
2023-01-30T08:56:23.107Z,2.41
2023-01-30T08:57:24.991Z,3.12
2023-01-30T08:58:26.833Z,2.66
2023-01-30T08:59:28.424Z,2.82
2023-01-30T09:00:30.532Z,2.97
2023-01-30T09:01:32.354Z,2.80
2023-01-30T09:02:34.233Z,2.88
2023-01-30T09:03:36.160Z,3.22
2023-01-30T09:04:39.110Z,3.34
2023-01-30T09:05:40.912Z,3.29
2023-01-30T09:06:43.045Z,3.34
2023-01-30T09:07:45.592Z,3.40
2023-01-30T09:08:47.445Z,2.89
2023-01-30T09:09:49.025Z,3.37
2023-01-30T09:10:50.941Z,3.31
2023-01-30T09:11:52.675Z,2.78
2023-01-30T09:12:54.587Z,3.58
2023-01-30T09:13:56.391Z,2.73
2023-01-30T09:14:58.568Z,3.62
2023-01-30T09:16:00.243Z,3.55
2023-01-30T09:17:01.969Z,2.69
2023-01-30T09:18:05.071Z,2.96
2023-01-30T09:19:06.627Z,3.71
2023-01-30T09:20:10.079Z,2.93
2023-01-30T09:21:13.541Z,3.15
2023-01-30T09:22:16.560Z,2.83
2023-01-30T09:23:18.281Z,3.26
2023-01-30T09:24:20.842Z,3.54
2023-01-30T09:25:22.520Z,4.00
2023-01-30T09:26:24.495Z,3.23
2023-01-30T09:27:26.642Z,3.16
2023-01-30T09:28:31.077Z,2.93
2023-01-30T09:29:32.991Z,3.83
2023-01-30T09:30:35.078Z,3.27
2023-01-30T09:31:37.071Z,3.30
2023-01-30T09:32:39.141Z,3.38
2023-01-30T09:33:40.929Z,2.65
2023-01-30T09:34:43.007Z,3.13
2023-01-30T09:35:48.091Z,2.07
2023-01-30T09:36:49.725Z,2.98
2023-01-30T09:37:53.577Z,3.49
2023-01-30T09:38:55.339Z,3.41
2023-01-30T09:39:56.913Z,3.76
2023-01-30T09:41:07.773Z,3.82
2023-01-30T09:42:24.117Z,3.85
2023-01-30T09:43:57.701Z,4.03
2023-01-30T09:45:20.937Z,4.16
2023-01-30T09:46:37.788Z,4.28
2023-01-30T09:47:52.500Z,4.09
2023-01-30T09:49:20.068Z,4.62
2023-01-30T09:50:21.886Z,4.62
2023-01-30T09:51:32.019Z,4.63
2023-01-30T09:52:57.652Z,4.38
2023-01-30T09:54:15.455Z,4.70
2023-01-30T09:55:27.189Z,3.89
2023-01-30T09:56:29.468Z,3.90
2023-01-30T09:57:31.184Z,4.03
2023-01-30T09:59:03.081Z,4.65
2023-01-30T10:00:23.271Z,4.70
2023-01-30T10:01:39.468Z,4.45
2023-01-30T10:02:50.172Z,4.32
2023-01-30T10:04:16.209Z,4.36
2023-01-30T10:05:18.950Z,3.47
2023-01-30T10:06:20.831Z,3.58
2023-01-30T10:07:36.872Z,4.35
2023-01-30T10:08:50.408Z,4.35
2023-01-30T10:09:59.900Z,4.32
2023-01-30T10:11:11.927Z,3.58
2023-01-30T10:12:19.824Z,4.04
2023-01-30T10:13:28.049Z,4.02
2023-01-30T10:14:32.587Z,3.76
2023-01-30T10:15:52.517Z,4.13
2023-01-30T10:17:05.902Z,3.98
2023-01-30T10:18:36.844Z,3.41
2023-01-30T10:20:14.320Z,3.89
2023-01-30T10:21:25.550Z,3.97
2023-01-30T10:22:54.097Z,3.50
2023-01-30T10:24:01.702Z,3.89
2023-01-30T10:25:20.216Z,3.85
2023-01-30T10:26:26.530Z,4.04
2023-01-30T10:27:31.064Z,3.70
2023-01-30T10:28:39.269Z,4.03
2023-01-30T10:29:50.049Z,3.59
2023-01-30T10:30:56.683Z,3.24
2023-01-30T10:32:12.455Z,3.46
2023-01-30T10:33:45.223Z,3.83
2023-01-30T10:34:52.968Z,3.53
2023-01-30T10:36:11.065Z,3.67
2023-01-30T10:37:24.577Z,3.71
2023-01-30T10:38:50.731Z,3.67
2023-01-30T10:40:04.897Z,3.76
2023-01-30T10:41:12.161Z,3.80
2023-01-30T10:42:38.873Z,3.77
2023-01-30T10:43:48.309Z,3.50
2023-01-30T10:44:50.299Z,3.14
2023-01-30T10:46:10.144Z,3.38
2023-01-30T10:47:47.323Z,3.76
2023-01-30T10:48:59.798Z,3.87
2023-01-30T10:50:17.328Z,3.16
2023-01-30T10:51:42.683Z,3.57
2023-01-30T10:53:06.274Z,3.77
2023-01-30T10:54:19.764Z,3.92
2023-01-30T10:55:44.943Z,3.85
2023-01-30T10:56:52.287Z,3.82
2023-01-30T10:58:29.293Z,3.86
2023-01-30T10:59:45.486Z,3.28
2023-01-30T11:00:53.143Z,3.94
2023-01-30T11:02:02.917Z,2.97
2023-01-30T11:03:15.373Z,3.84
2023-01-30T11:04:20.190Z,3.89
2023-01-30T11:05:25.830Z,3.29
2023-01-30T11:06:27.930Z,3.83
2023-01-30T11:07:34.054Z,3.40
2023-01-30T11:08:37.164Z,3.98
2023-01-30T11:09:47.336Z,4.30
2023-01-30T11:10:51.152Z,3.50
2023-01-30T11:11:54.801Z,4.24
2023-01-30T11:13:11.594Z,4.19
2023-01-30T11:14:13.928Z,3.27
2023-01-30T11:15:16.504Z,3.43
2023-01-30T11:16:18.854Z,3.81
2023-01-30T11:17:32.665Z,3.29
2023-01-30T11:20:20.013Z,4.29
2023-01-30T11:21:43.084Z,4.11
2023-01-30T11:23:04.873Z,4.13
2023-01-30T11:24:17.214Z,4.13
2023-01-30T11:25:22.787Z,3.92
2023-01-30T11:26:41.525Z,3.47
2023-01-30T11:28:02.296Z,3.64
2023-01-30T11:29:29.387Z,3.38
2023-01-30T11:30:37.961Z,3.03
2023-01-30T11:31:42.047Z,3.87
2023-01-30T11:32:47.459Z,3.49
2023-01-30T11:34:12.878Z,3.47
2023-01-30T11:35:14.730Z,3.91
2023-01-30T11:36:37.920Z,3.29
2023-01-30T11:37:41.704Z,3.74
2023-01-30T11:38:58.701Z,4.01
2023-01-30T11:40:26.425Z,4.03
2023-01-30T11:41:28.790Z,3.53
2023-01-30T11:42:32.087Z,4.05
2023-01-30T11:43:37.873Z,4.01
2023-01-30T11:44:42.876Z,3.37
2023-01-30T11:45:50.475Z,3.81
2023-01-30T11:46:52.440Z,4.02
2023-01-30T11:47:58.327Z,3.40
2023-01-30T11:49:48.145Z,4.06
2023-01-30T11:51:02.313Z,4.10
2023-01-30T11:52:06.359Z,3.57
2023-01-30T11:53:21.599Z,4.18
2023-01-30T11:54:33.590Z,3.86
2023-01-30T11:55:39.660Z,3.22
2023-01-30T11:56:55.988Z,3.59
2023-01-30T11:57:59.209Z,4.07
2023-01-30T11:59:16.443Z,4.38
2023-01-30T12:00:25.424Z,4.57
2023-01-30T12:01:30.021Z,4.55
2023-01-30T12:02:54.519Z,4.54
2023-01-30T12:03:58.923Z,4.07
2023-01-30T12:05:06.659Z,4.41
2023-01-30T12:06:08.303Z,4.10
2023-01-30T12:07:37.223Z,4.98
2023-01-30T12:08:43.028Z,4.93
2023-01-30T12:09:52.606Z,4.03
2023-01-30T12:11:31.142Z,3.33
2023-01-30T12:12:52.512Z,4.40
2023-01-30T12:14:04.672Z,3.75
2023-01-30T12:15:31.173Z,4.44
2023-01-30T12:17:05.715Z,3.36
2023-01-30T12:18:31.626Z,4.46
2023-01-30T12:19:41.760Z,4.00
2023-01-30T12:20:55.060Z,4.52
2023-01-30T12:22:26.855Z,3.73
2023-01-30T12:23:42.590Z,3.81
2023-01-30T12:24:53.377Z,4.34
2023-01-30T12:26:34.130Z,4.59
2023-01-30T12:28:06.976Z,4.38
2023-01-30T12:29:34.266Z,3.58
2023-01-30T12:31:13.668Z,3.06
2023-01-30T12:32:22.363Z,2.73
2023-01-30T12:33:42.901Z,3.88
2023-01-30T12:34:52.516Z,3.99
2023-01-30T12:36:25.694Z,3.38
2023-01-30T12:38:10.651Z,4.20
2023-01-30T12:39:32.142Z,3.61
2023-01-30T12:41:12.906Z,2.62
2023-01-30T12:42:39.375Z,2.72
2023-01-30T12:44:04.368Z,3.64
2023-01-30T12:45:09.315Z,3.82
2023-01-30T12:46:23.718Z,2.47
2023-01-30T12:47:34.671Z,3.92
2023-01-30T12:49:07.952Z,3.64
2023-01-30T12:50:38.107Z,3.61
2023-01-30T12:52:09.012Z,3.31
2023-01-30T12:53:30.806Z,3.59
2023-01-30T12:54:47.907Z,3.82
2023-01-30T12:56:10.955Z,3.55
2023-01-30T12:57:24.255Z,3.69
2023-01-30T12:58:38.477Z,3.78
2023-01-30T12:59:51.793Z,3.81
2023-01-30T13:01:35.505Z,3.28
2023-01-30T13:02:56.281Z,3.70
2023-01-30T13:04:08.146Z,3.79
2023-01-30T13:05:35.379Z,3.02
2023-01-30T13:06:58.075Z,3.13
2023-01-30T13:08:15.196Z,3.09
2023-01-30T13:09:37.137Z,3.28
2023-01-30T13:10:48.956Z,3.34
2023-01-30T13:12:50.188Z,3.13
2023-01-30T13:14:08.763Z,3.40
2023-01-30T13:15:28.436Z,2.34
2023-01-30T13:17:00.689Z,2.69
2023-01-30T13:18:15.800Z,3.16
2023-01-30T13:19:23.094Z,2.54
2023-01-30T13:20:50.256Z,3.07
2023-01-30T13:22:06.263Z,2.38
2023-01-30T13:23:23.733Z,3.00
2023-01-30T13:24:51.006Z,3.12
2023-01-30T13:26:05.342Z,2.59
2023-01-30T13:27:15.483Z,2.37
2023-01-30T13:28:34.867Z,1.76
2023-01-30T13:29:40.734Z,3.07
2023-01-30T13:30:47.840Z,2.99
2023-01-30T13:31:55.064Z,2.72
2023-01-30T13:33:13.348Z,2.38
2023-01-30T13:34:26.937Z,2.34
2023-01-30T13:35:56.015Z,1.88
2023-01-30T13:37:15.071Z,2.64
2023-01-30T13:38:29.439Z,2.09
2023-01-30T13:39:42.508Z,2.24
2023-01-30T13:40:48.922Z,2.67
2023-01-30T13:41:56.654Z,3.06
2023-01-30T13:43:04.954Z,3.17
2023-01-30T13:44:24.851Z,2.95
2023-01-30T13:45:30.581Z,3.11
2023-01-30T13:46:33.527Z,2.50
2023-01-30T13:47:40.156Z,2.90
2023-01-30T13:49:07.824Z,3.06
2023-01-30T13:50:12.459Z,2.94
2023-01-30T13:51:48.013Z,2.72
2023-01-30T13:52:56.561Z,3.09
2023-01-30T13:54:36.864Z,3.01
2023-01-30T13:55:41.279Z,2.54
2023-01-30T13:57:01.633Z,2.95
2023-01-30T13:58:25.234Z,2.97
2023-01-30T13:59:35.828Z,3.04
2023-01-30T14:00:37.687Z,2.49
2023-01-30T14:02:04.431Z,2.89
2023-01-30T14:03:08.992Z,2.94
2023-01-30T14:04:42.297Z,2.92
2023-01-30T14:06:08.843Z,2.90
2023-01-30T14:07:21.946Z,2.88
2023-01-30T14:08:27.006Z,2.31
2023-01-30T14:09:33.331Z,2.76
2023-01-30T14:10:39.161Z,1.39
2023-01-30T14:12:03.212Z,3.00
2023-01-30T14:13:27.435Z,2.57
2023-01-30T14:14:41.208Z,2.98
2023-01-30T14:15:53.360Z,2.36
2023-01-30T14:17:21.574Z,2.58
2023-01-30T14:18:25.090Z,3.17
2023-01-30T14:19:44.592Z,2.56
2023-01-30T14:20:50.810Z,3.10
2023-01-30T14:22:06.600Z,2.88
2023-01-30T14:23:33.194Z,3.14
2023-01-30T14:24:40.452Z,2.41
2023-01-30T14:26:12.250Z,2.48
2023-01-30T14:27:32.099Z,2.16
2023-01-30T14:28:55.850Z,2.32
2023-01-30T14:30:23.514Z,2.25
2023-01-30T14:31:51.037Z,1.47
2023-01-30T14:33:02.524Z,2.45
2023-01-30T14:34:43.470Z,2.92
2023-01-30T14:35:47.039Z,2.92
2023-01-30T14:36:49.748Z,2.80
2023-01-30T14:38:04.811Z,2.24
2023-01-30T14:39:41.450Z,2.92
2023-01-30T14:41:03.353Z,2.77
2023-01-30T14:42:25.168Z,2.74
2023-01-30T14:43:37.727Z,2.63
2023-01-30T14:45:04.975Z,2.80
2023-01-30T14:46:15.658Z,2.98
2023-01-30T14:47:35.486Z,2.70
2023-01-30T14:48:48.370Z,3.07
2023-01-30T14:49:50.691Z,3.05
2023-01-30T14:51:11.402Z,3.10
2023-01-30T14:52:40.423Z,2.79
2023-01-30T14:54:02.049Z,2.51
2023-01-30T14:55:04.751Z,2.35
2023-01-30T14:56:06.623Z,2.34
2023-01-30T14:57:22.791Z,2.44
2023-01-30T14:58:24.477Z,1.96
2023-01-30T14:59:56.626Z,3.30
2023-01-30T15:01:08.906Z,2.88